Time;durP1;ratioP1;P1;durP2;ratioP2;P2;SDS_P1;SDS_P2;PMS_P1;PMS_P2;Temp;Humidity;BMP_temperature;BMP_pressure;BME280_temperature;BME280_humidity;BME280_pressure;Samples;Min_cycle;Max_cycle;Signal;HPM_P1;HPM_P2
2022/05/12 00:01:04;;;;;;;91.57;47.50;;;;;;;28.71;73.57;97350.94;4930476;29;20645;-69
2022/05/12 00:03:53;;;;;;;100.25;48.15;;;;;;;28.64;69.50;97351.91;4929809;29;20047;-67
2022/05/12 00:06:42;;;;;;;80.90;45.58;;;;;;;28.63;74.59;97363.50;4929916;29;20411;-69
2022/05/12 00:09:31;;;;;;;88.45;48.78;;;;;;;28.58;73.25;97350.00;4930048;29;20043;-67
2022/05/12 00:12:13;;;;;;;97.38;46.15;;;;;;;28.54;74.72;97345.09;4928783;28;20383;-67
2022/05/12 00:15:08;;;;;;;90.78;47.90;;;;;;;28.52;74.16;97356.88;4929170;29;20075;-67
2022/05/12 00:17:51;;;;;;;89.90;45.83;;;;;;;28.50;75.09;97358.91;4913882;29;20482;-67
2022/05/12 00:20:42;;;;;;;88.93;45.85;;;;;;;28.44;74.29;97357.84;4909685;29;20143;-68
2022/05/12 00:23:34;;;;;;;89.85;46.20;;;;;;;28.46;75.30;97365.63;4910675;29;20044;-68
2022/05/12 00:26:28;;;;;;;86.13;44.53;;;;;;;28.41;74.46;97360.91;4910618;29;20064;-68
2022/05/12 00:29:13;;;;;;;92.88;46.35;;;;;;;28.41;73.23;97371.50;4909881;29;20139;-68
2022/05/12 00:32:08;;;;;;;98.40;48.47;;;;;;;28.41;74.64;97370.69;4902615;29;20314;-68
2022/05/12 00:34:44;;;;;;;86.55;45.60;;;;;;;28.40;75.63;97379.63;4891769;29;20063;-67
2022/05/12 00:37:33;;;;;;;96.10;46.10;;;;;;;28.42;74.85;97383.72;4917930;29;20139;-68
2022/05/12 00:40:17;;;;;;;85.60;44.42;;;;;;;28.42;74.68;97383.72;4890411;29;20464;-68
2022/05/12 00:43:28;;;;;;;91.72;45.50;;;;;;;28.45;76.07;97398.41;4893571;29;20044;-68
2022/05/12 00:46:23;;;;;;;94.68;43.17;;;;;;;28.47;75.63;97391.09;4909880;29;20152;-68
2022/05/12 00:49:37;;;;;;;84.95;44.35;;;;;;;28.50;76.52;97394.19;4911073;29;20155;-67
2022/05/12 00:52:20;;;;;;;82.22;43.80;;;;;;;28.54;77.39;97403.41;4914715;29;20052;-67
2022/05/12 00:55:21;;;;;;;87.38;42.65;;;;;;;28.59;77.11;97402.00;4899245;29;20048;-68
2022/05/12 00:58:02;;;;;;;88.35;43.30;;;;;;;28.64;77.24;97396.97;4920234;29;20052;-67
2022/05/12 01:00:50;;;;;;;84.90;43.67;;;;;;;28.70;76.55;97406.78;4893984;29;20048;-67
2022/05/12 01:03:41;;;;;;;82.72;42.90;;;;;;;28.73;73.03;97417.03;4924576;29;20060;-67
2022/05/12 01:06:23;;;;;;;85.57;41.83;;;;;;;28.80;70.56;97413.44;4910135;29;20170;-67
2022/05/12 01:09:12;;;;;;;83.68;40.88;;;;;;;28.87;72.26;97408.19;4908887;29;20107;-67
2022/05/12 01:12:09;;;;;;;83.75;42.65;;;;;;;28.89;68.86;97419.44;4896606;29;20036;-67
2022/05/12 01:14:45;;;;;;;86.57;40.92;;;;;;;29.00;71.05;97418.06;4906660;29;20062;-67
2022/05/12 01:17:40;;;;;;;74.13;39.50;;;;;;;29.09;78.36;97428.34;4906700;29;20055;-68
2022/05/12 01:20:16;;;;;;;74.53;40.97;;;;;;;29.11;74.54;97431.63;4897193;29;20126;-67
2022/05/12 01:23:26;;;;;;;82.63;42.90;;;;;;;29.18;74.63;97437.81;4891251;29;20120;-66
2022/05/12 01:26:19;;;;;;;90.47;43.70;;;;;;;29.27;72.21;97431.34;4890551;29;20059;-66
2022/05/12 01:29:03;;;;;;;90.45;45.45;;;;;;;29.36;70.79;97434.69;4902807;29;20536;-67
2022/05/12 01:31:51;;;;;;;78.25;42.80;;;;;;;29.44;71.20;97441.66;4899816;29;20523;-67
2022/05/12 01:34:33;;;;;;;81.90;44.58;;;;;;;29.52;70.62;97450.28;4900931;29;20051;-69
2022/05/12 01:37:22;;;;;;;76.75;43.95;;;;;;;29.58;74.16;97446.84;4900648;29;20832;-69
2022/05/12 01:40:05;;;;;;;79.82;43.63;;;;;;;29.68;74.17;97460.59;4899756;29;20140;-67
2022/05/12 01:42:55;;;;;;;85.68;44.58;;;;;;;29.79;76.40;97448.56;4900355;29;20064;-67
2022/05/12 01:45:37;;;;;;;76.07;43.75;;;;;;;29.90;75.56;97452.50;4900607;29;20064;-67
2022/05/12 01:48:27;;;;;;;81.47;45.22;;;;;;;29.99;73.21;97462.81;4904788;29;20051;-67
2022/05/12 01:51:16;;;;;;;83.57;42.55;;;;;;;30.23;71.03;97458.81;4899672;29;20139;-67
2022/05/12 01:54:06;;;;;;;78.43;42.03;;;;;;;30.60;73.43;97459.31;4899292;29;20048;-67
2022/05/12 01:56:47;;;;;;;68.22;40.40;;;;;;;30.93;70.62;97456.69;4895253;29;20049;-68
2022/05/12 01:59:36;;;;;;;83.35;42.45;;;;;;;31.03;68.77;97449.09;4889032;29;20139;-68
2022/05/12 02:02:18;;;;;;;74.30;40.92;;;;;;;31.23;66.96;97462.41;4889382;29;20045;-68
2022/05/12 02:05:09;;;;;;;72.38;41.88;;;;;;;31.47;67.94;97451.13;4890547;29;20405;-67
2022/05/12 02:07:52;;;;;;;62.00;39.33;;;;;;;31.75;67.96;97459.69;4890318;29;20167;-68
2022/05/12 02:10:45;;;;;;;80.93;39.15;;;;;;;31.93;66.48;97461.66;4891209;29;20128;-68
2022/05/12 02:13:34;;;;;;;70.90;40.72;;;;;;;32.11;63.82;97459.13;4889898;29;20057;-68
2022/05/12 02:16:25;;;;;;;78.82;40.47;;;;;;;32.37;65.47;97468.88;4890294;29;20578;-68
2022/05/12 02:19:09;;;;;;;64.45;39.05;;;;;;;32.80;64.82;97474.38;4901189;29;20769;-68
2022/05/12 02:22:00;;;;;;;89.90;43.10;;;;;;;33.05;62.27;97469.84;4909486;29;20047;-68
2022/05/12 02:24:42;;;;;;;63.65;38.00;;;;;;;33.28;62.49;97455.13;4893283;29;20052;-68
2022/05/12 02:27:31;;;;;;;65.65;39.78;;;;;;;33.51;61.54;97463.31;4911305;29;20076;-68
2022/05/12 02:30:19;;;;;;;66.40;39.90;;;;;;;33.90;59.54;97470.09;4912795;29;20484;-67
2022/05/12 02:33:09;;;;;;;67.10;39.53;;;;;;;33.93;58.50;97468.81;4912777;29;20076;-67
2022/05/12 02:35:51;;;;;;;60.50;39.78;;;;;;;33.84;58.14;97465.66;4913005;29;20119;-67
2022/05/12 02:38:40;;;;;;;73.18;40.25;;;;;;;34.19;57.96;97457.78;4912402;29;20076;-66
2022/05/12 02:41:22;;;;;;;77.15;39.08;;;;;;;34.40;56.49;97454.63;4922948;29;20515;-66
2022/05/12 02:44:11;;;;;;;67.25;39.55;;;;;;;34.42;56.25;97449.88;4931334;29;20122;-68
2022/05/12 02:46:53;;;;;;;69.90;39.78;;;;;;;34.59;56.55;97455.41;4931813;29;20039;-66
2022/05/12 02:49:43;;;;;;;73.38;37.45;;;;;;;34.86;55.57;97463.88;4931054;29;20044;-68
2022/05/12 02:52:26;;;;;;;65.85;37.30;;;;;;;34.67;58.04;97462.28;4909097;29;20052;-67
2022/05/12 02:55:15;;;;;;;65.10;36.80;;;;;;;34.98;55.96;97467.38;4911779;29;20063;-68
2022/05/12 02:58:04;;;;;;;61.67;37.30;;;;;;;35.18;55.57;97470.56;4911751;29;20044;-68
2022/05/12 03:00:47;;;;;;;67.20;40.78;;;;;;;35.35;53.80;97470.72;4912483;29;20163;-68
2022/05/12 03:03:36;;;;;;;69.70;38.55;;;;;;;35.24;55.47;97461.63;4912452;29;20052;-67
2022/05/12 03:06:18;;;;;;;69.10;40.53;;;;;;;35.32;54.97;97468.47;4911887;29;20135;-68
2022/05/12 03:09:14;;;;;;;78.97;41.30;;;;;;;35.24;56.20;97463.47;4908212;29;20142;-67
2022/05/12 03:12:02;;;;;;;65.07;37.97;;;;;;;34.83;58.30;97469.69;4906420;28;20444;-68
2022/05/12 03:14:57;;;;;;;66.18;37.38;;;;;;;35.62;55.81;97473.69;4873811;29;20422;-68
2022/05/12 03:17:34;;;;;;;66.90;39.45;;;;;;;34.34;55.23;97470.78;4889096;29;20049;-68
2022/05/12 03:20:25;;;;;;;67.72;37.90;;;;;;;34.61;57.42;97473.91;4890086;29;20056;-68
2022/05/12 03:23:14;;;;;;;65.82;36.90;;;;;;;34.87;54.52;97468.19;4874145;29;20041;-68
2022/05/12 03:25:56;;;;;;;64.15;36.25;;;;;;;34.65;56.06;97473.22;4874551;29;20208;-68
2022/05/12 03:28:47;;;;;;;66.65;37.60;;;;;;;35.15;55.77;97471.00;4886775;29;20053;-68
2022/05/12 03:31:29;;;;;;;68.13;35.70;;;;;;;35.53;53.28;97475.91;4892910;29;20052;-69
2022/05/12 03:34:18;;;;;;;64.28;35.08;;;;;;;35.96;52.36;97469.34;4888483;29;20159;-67
2022/05/12 03:37:00;;;;;;;57.53;35.85;;;;;;;35.91;51.87;97475.44;4894545;29;20108;-68
2022/05/12 03:39:55;;;;;;;58.67;35.63;;;;;;;36.09;53.15;97474.44;4893613;29;20120;-67
2022/05/12 03:42:37;;;;;;;63.05;35.83;;;;;;;35.40;53.36;97478.03;4894898;29;20063;-68
2022/05/12 03:45:26;;;;;;;62.75;35.85;;;;;;;36.04;53.70;97485.91;4895662;29;20037;-67
2022/05/12 03:48:08;;;;;;;55.83;35.38;;;;;;;36.52;53.84;97490.06;4892390;29;20808;-68
2022/05/12 03:50:57;;;;;;;64.75;38.70;;;;;;;35.86;52.89;97486.03;4893112;29;20147;-68
2022/05/12 03:53:40;;;;;;;75.65;36.47;;;;;;;36.70;52.39;97481.84;4892731;29;20116;-68
2022/05/12 03:56:29;;;;;;;61.67;37.47;;;;;;;36.86;51.12;97482.09;4892456;29;20057;-67
2022/05/12 03:59:15;;;;;;;66.78;36.92;;;;;;;37.24;51.95;97487.56;4892257;29;20041;-69
2022/05/12 04:02:04;;;;;;;61.95;35.15;;;;;;;37.39;50.68;97485.13;4892391;29;20076;-70
2022/05/12 04:04:53;;;;;;;64.30;35.20;;;;;;;36.82;50.95;97486.31;4892285;29;20484;-69
2022/05/12 04:07:49;;;;;;;62.67;34.10;;;;;;;36.74;49.65;97488.34;4892189;29;20116;-70
2022/05/12 04:10:32;;;;;;;71.00;35.25;;;;;;;36.63;49.19;97491.88;4891815;29;20048;-70
2022/05/12 04:13:28;;;;;;;72.40;35.92;;;;;;;37.13;53.49;97489.28;4898147;29;20051;-69
2022/05/12 04:16:23;;;;;;;59.60;35.63;;;;;;;36.39;49.76;97490.38;4896424;29;20040;-69
2022/05/12 04:19:13;;;;;;;58.08;34.97;;;;;;;37.44;52.00;97495.94;4899992;29;20528;-69
2022/05/12 04:21:55;;;;;;;61.30;35.70;;;;;;;37.25;50.00;97497.28;4901130;29;20045;-70
2022/05/12 04:24:45;;;;;;;64.63;33.30;;;;;;;37.47;52.18;97490.06;4900430;29;20078;-68
2022/05/12 04:27:34;;;;;;;65.10;32.95;;;;;;;37.62;50.81;97497.56;4896677;29;20127;-69
2022/05/12 04:30:18;;;;;;;61.65;34.17;;;;;;;37.78;47.65;97499.41;4906161;29;20064;-68
2022/05/12 04:36:15;;;;;;;66.57;36.30;;;;;;;37.70;49.19;97497.16;4901360;29;20136;-69
2022/05/12 04:39:03;;;;;;;64.22;34.50;;;;;;;38.08;47.24;97496.31;4897284;29;20108;-70
2022/05/12 04:41:53;;;;;;;60.65;32.55;;;;;;;38.08;48.21;97493.63;4896609;29;20044;-67
2022/05/12 04:44:35;;;;;;;;;;;;;;;38.75;47.58;97496.00;4900028;29;20048;-68
2022/05/12 04:47:24;;;;;;;55.38;31.20;;;;;;;38.34;46.70;97485.84;4898930;29;20355;-68
2022/05/12 04:50:07;;;;;;;74.35;30.55;;;;;;;38.32;44.24;97485.28;4901473;29;20056;-65
2022/05/12 04:53:03;;;;;;;58.42;29.23;;;;;;;38.46;44.74;97489.22;4898074;29;20048;-67
2022/05/12 04:55:39;;;;;;;61.13;28.08;;;;;;;39.02;43.07;97482.53;4904459;29;20143;-67
2022/05/12 04:58:28;;;;;;;;;;;;;;;38.41;44.40;97478.38;4899752;29;20056;-68
2022/05/12 05:01:10;;;;;;;71.63;28.00;;;;;;;39.27;45.78;97479.22;4875093;29;20359;-68
2022/05/12 05:04:00;;;;;;;55.30;28.92;;;;;;;39.59;44.12;97479.19;4899345;29;20436;-67
2022/05/12 05:06:49;;;;;;;60.25;28.17;;;;;;;38.56;41.58;97483.94;4898149;29;20048;-67
2022/05/12 05:09:31;;;;;;;77.97;29.20;;;;;;;39.08;42.23;97480.69;4904197;29;20058;-69
2022/05/12 05:12:21;;;;;;;65.80;26.88;;;;;;;39.11;40.50;97480.16;4900554;29;20076;-66
2022/05/12 05:15:10;;;;;;;55.92;26.35;;;;;;;39.63;43.24;97489.16;4905970;28;20059;-67
2022/05/12 05:17:59;;;;;;;58.47;25.17;;;;;;;39.50;43.40;97484.25;4904215;29;20398;-68
2022/05/12 05:20:42;;;;;;;54.17;24.73;;;;;;;39.88;44.00;97485.81;4928072;29;20070;-67
2022/05/12 05:23:37;;;;;;;48.85;23.83;;;;;;;39.79;41.49;97488.19;4928647;29;20071;-69
2022/05/12 05:26:13;;;;;;;47.42;24.90;;;;;;;39.86;39.40;97489.84;4913291;29;20076;-68
2022/05/12 05:29:01;;;;;;;51.95;24.63;;;;;;;39.82;43.03;97486.88;4904987;29;20067;-69
2022/05/12 05:31:47;;;;;;;65.18;25.52;;;;;;;40.02;43.68;97495.06;4905413;29;20104;-69
2022/05/12 05:34:48;;;;;;;58.80;23.23;;;;;;;39.93;38.56;97487.72;4899213;29;20048;-68
2022/05/12 05:37:24;;;;;;;43.58;21.35;;;;;;;40.01;38.42;97489.91;4896702;29;20074;-69
2022/05/12 05:40:26;;;;;;;44.80;22.40;;;;;;;40.32;37.70;97483.56;4893223;29;20040;-69
2022/05/12 05:43:03;;;;;;;49.80;22.30;;;;;;;39.85;36.12;97483.63;4892362;29;20057;-70
2022/05/12 05:45:57;;;;;;;60.38;22.45;;;;;;;40.13;39.50;97487.81;4899640;29;20044;-69
2022/05/12 05:48:33;;;;;;;47.03;22.80;;;;;;;40.22;37.79;97475.44;4922106;29;20063;-69
2022/05/12 05:54:31;;;;;;;48.03;21.92;;;;;;;40.17;38.70;97488.88;4928045;29;20043;-67
2022/05/12 05:57:38;;;;;;;48.75;19.98;;;;;;;40.25;39.55;97480.31;4904280;29;20051;-67
2022/05/12 06:00:15;;;;;;;51.80;20.73;;;;;;;40.21;38.83;97479.19;4909953;29;20082;-67
2022/05/12 06:03:13;;;;;;;53.53;18.98;;;;;;;40.31;40.68;97473.84;4907295;29;20059;-68
2022/05/12 06:05:50;;;;;;;45.15;18.10;;;;;;;40.43;37.67;97479.00;4899793;29;20143;-68
2022/05/12 06:08:39;;;;;;;;;;;;;;;40.04;33.10;97495.59;4893064;29;20357;-69
2022/05/12 06:11:21;;;;;;;46.10;18.75;;;;;;;40.32;35.17;97491.66;4894540;29;19927;-69
2022/05/12 06:14:11;;;;;;;48.78;19.27;;;;;;;40.45;38.95;97480.38;4899629;29;20056;-69
2022/05/12 06:16:53;;;;;;;36.83;17.98;;;;;;;40.30;34.49;97483.03;4904742;29;20055;-66
2022/05/12 06:19:50;;;;;;;37.35;17.73;;;;;;;40.41;36.78;97479.28;4905221;29;20817;-67
2022/05/12 06:22:26;;;;;;;38.85;16.15;;;;;;;40.41;37.87;97475.75;4895378;29;20047;-67
2022/05/12 06:25:16;;;;;;;;;;;;;;;40.25;34.65;97474.91;4902703;29;20079;-67
2022/05/12 06:28:06;;;;;;;52.03;17.05;;;;;;;40.57;34.06;97476.59;4901623;29;20006;-67
2022/05/12 06:30:47;;;;;;;35.03;15.68;;;;;;;40.67;35.10;97471.22;4906587;29;20128;-67
2022/05/12 06:33:36;;;;;;;41.40;15.15;;;;;;;40.55;34.30;97470.69;4894784;29;20116;-66
2022/05/12 06:36:19;;;;;;;41.95;15.50;;;;;;;40.48;33.82;97469.03;4896998;29;20067;-68
2022/05/12 06:39:07;;;;;;;47.47;16.00;;;;;;;40.33;34.20;97471.69;4889517;29;20049;-70
2022/05/12 06:41:49;;;;;;;55.85;16.38;;;;;;;40.29;32.66;97462.50;4890782;29;20052;-69
2022/05/12 06:44:50;;;;;;;37.42;14.55;;;;;;;40.45;35.46;97457.94;4898885;29;20100;-68
2022/05/12 06:47:33;;;;;;;37.65;15.57;;;;;;;40.56;38.52;97456.88;4907545;29;20052;-68
2022/05/12 06:50:33;;;;;;;38.10;13.85;;;;;;;40.31;31.66;97454.94;4895103;29;20123;-68
2022/05/12 06:53:22;;;;;;;41.65;13.82;;;;;;;40.34;33.70;97446.31;4898346;29;20060;-68
2022/05/12 06:56:12;;;;;;;38.35;14.70;;;;;;;40.29;31.72;97442.81;4899028;29;20160;-68
2022/05/12 06:58:54;;;;;;;;;;;;;;;40.16;28.91;97441.38;4901418;29;20183;-68
2022/05/12 07:01:43;;;;;;;37.67;12.20;;;;;;;40.31;30.30;97440.66;4899465;29;20236;-68
2022/05/12 07:04:29;;;;;;;39.25;13.02;;;;;;;40.40;32.89;97428.22;4900012;29;20036;-68
2022/05/12 07:07:20;;;;;;;38.35;12.00;;;;;;;40.45;34.35;97417.44;4907651;29;20052;-68
2022/05/12 07:10:04;;;;;;;40.58;13.98;;;;;;;40.30;32.42;97412.84;4909464;29;20059;-67
2022/05/12 07:12:55;;;;;;;39.42;15.27;;;;;;;40.10;32.91;97408.16;4905548;29;20895;-67
2022/05/12 07:15:43;;;;;;;41.83;15.15;;;;;;;40.22;32.07;97410.63;4910316;29;20147;-67
2022/05/12 07:18:34;;;;;;;28.77;13.93;;;;;;;40.26;32.36;97406.34;4869360;29;20140;-67
2022/05/12 07:27:24;;;;;;;35.28;15.18;;;;;;;40.39;34.20;97386.13;4869911;29;20334;-67
2022/05/12 07:30:13;;;;;;;40.20;14.48;;;;;;;40.44;33.40;97386.94;4862711;29;20275;-68
2022/05/12 07:32:55;;;;;;;41.00;14.27;;;;;;;40.43;33.32;97382.59;4859773;29;20045;-67
2022/05/12 07:35:44;;;;;;;36.22;14.50;;;;;;;40.27;30.56;97380.97;4870741;29;20079;-67
2022/05/12 07:38:26;;;;;;;27.95;13.07;;;;;;;40.29;31.88;97373.41;4893136;29;20049;-68
2022/05/12 07:41:17;;;;;;;41.58;13.65;;;;;;;40.11;30.07;97373.88;4855976;29;20140;-67
2022/05/12 07:43:58;;;;;;;32.97;13.32;;;;;;;40.21;34.10;97363.13;4864909;29;20049;-68
2022/05/12 07:46:49;;;;;;;25.50;12.13;;;;;;;40.13;30.42;97363.66;4859667;29;20052;-67
2022/05/12 07:49:35;;;;;;;34.63;11.57;;;;;;;40.20;28.23;97361.50;4874344;29;20136;-68
2022/05/12 07:52:29;;;;;;;37.97;12.65;;;;;;;40.23;27.99;97358.22;4869193;29;20041;-67
2022/05/12 07:55:05;;;;;;;31.45;11.63;;;;;;;40.29;29.00;97346.41;4865037;29;20073;-68
2022/05/12 07:57:54;;;;;;;39.67;11.70;;;;;;;40.40;29.68;97345.31;4861599;29;20125;-67
2022/05/12 08:00:37;;;;;;;35.80;9.35;;;;;;;40.38;32.44;97338.59;4865622;29;20041;-67
2022/05/12 08:03:27;;;;;;;35.10;12.77;;;;;;;40.36;27.78;97340.75;4863964;29;20065;-67
2022/05/12 08:06:09;;;;;;;;;;;;;;;40.24;30.85;97327.47;4866076;29;20049;-67
2022/05/12 08:08:59;;;;;;;29.25;11.52;;;;;;;40.27;28.41;97329.66;4856208;29;19988;-66
2022/05/12 08:11:41;;;;;;;;;;;;;;;40.19;29.03;97324.78;4868238;29;20064;-66
2022/05/12 08:14:30;;;;;;;32.33;12.25;;;;;;;40.30;30.63;97329.13;4861273;29;19927;-67
2022/05/12 08:17:12;;;;;;;42.28;12.98;;;;;;;40.23;31.67;97317.75;4885084;29;20390;-67
2022/05/12 08:20:01;;;;;;;33.13;11.95;;;;;;;40.06;28.45;97311.81;4898813;29;20044;-68
2022/05/12 08:22:51;;;;;;;32.90;11.20;;;;;;;40.10;27.45;97310.19;4906269;29;20095;-69
2022/05/12 08:25:33;;;;;;;24.25;11.38;;;;;;;40.21;26.32;97308.31;4897675;29;20045;-68
2022/05/12 08:28:25;;;;;;;29.33;11.15;;;;;;;40.25;25.86;97307.53;4891480;29;20128;-68
2022/05/12 08:31:07;;;;;;;34.28;10.60;;;;;;;40.21;28.65;97295.63;4890637;29;20059;-68
2022/05/12 08:33:57;;;;;;;33.15;10.48;;;;;;;40.17;27.19;97295.34;4896636;29;20092;-68
2022/05/12 08:36:39;;;;;;;38.20;10.98;;;;;;;40.06;28.18;97279.41;4900768;29;20040;-68
2022/05/12 08:39:28;;;;;;;31.33;9.85;;;;;;;39.95;28.08;97272.38;4894132;29;20112;-67
2022/05/12 08:42:19;;;;;;;25.38;10.32;;;;;;;39.84;29.91;97262.66;4910705;29;20040;-67
2022/05/12 08:45:11;;;;;;;26.23;10.30;;;;;;;39.80;34.00;97262.34;4921221;29;20130;-67
2022/05/12 08:47:57;;;;;;;33.05;11.10;;;;;;;39.78;31.01;97259.94;4899178;29;20048;-68
2022/05/12 08:50:48;;;;;;;44.08;12.18;;;;;;;39.77;29.67;97252.09;4899388;29;20059;-67
2022/05/12 08:53:59;;;;;;;36.25;11.73;;;;;;;39.65;29.97;97251.56;4898972;29;20115;-67
2022/05/12 08:56:49;;;;;;;27.80;12.07;;;;;;;39.65;30.89;97241.56;4903221;29;20080;-68
2022/05/12 08:59:32;;;;;;;34.22;11.68;;;;;;;39.43;30.58;97227.50;4900499;29;20083;-65
2022/05/12 09:02:50;;;;;;;27.88;11.10;;;;;;;39.18;34.12;97222.00;4899466;29;20068;-65
2022/05/12 09:06:05;;;;;;;32.90;12.55;;;;;;;38.89;33.03;97208.94;4901573;29;20048;-66
2022/05/12 09:08:53;;;;;;;44.90;13.05;;;;;;;39.26;30.14;97206.13;4899292;29;20111;-66
2022/05/12 09:11:54;;;;;;;30.50;12.77;;;;;;;39.35;32.00;97195.66;4896614;29;20056;-67
2022/05/12 09:14:53;;;;;;;47.40;13.75;;;;;;;39.28;33.18;97190.50;4900271;29;20048;-67
2022/05/12 09:17:54;;;;;;;33.88;13.50;;;;;;;39.09;32.98;97185.88;4903830;29;20052;-66
2022/05/12 09:20:44;;;;;;;34.83;12.88;;;;;;;39.08;29.93;97184.25;4898089;29;20108;-65
2022/05/12 09:23:35;;;;;;;35.83;14.05;;;;;;;39.28;30.10;97174.31;4892926;29;20063;-67
2022/05/12 09:26:34;;;;;;;;;;;;;;;38.98;33.86;97161.56;4896481;29;20048;-66
2022/05/12 09:29:25;;;;;;;39.00;13.35;;;;;;;38.89;32.46;97171.22;4899505;29;19982;-67
2022/05/12 09:32:07;;;;;;;27.58;12.75;;;;;;;38.82;32.87;97159.88;4896991;29;20455;-66
2022/05/12 09:35:35;;;;;;;34.70;13.38;;;;;;;38.85;31.21;97153.16;4901425;29;20139;-66
2022/05/12 09:38:26;;;;;;;30.88;12.50;;;;;;;38.84;33.77;97136.19;4895452;29;20052;-66
2022/05/12 09:41:24;;;;;;;32.85;13.32;;;;;;;38.93;31.67;97136.47;4902088;29;20568;-66
2022/05/12 09:44:21;;;;;;;29.92;11.43;;;;;;;38.59;34.12;97128.81;4897446;28;20048;-66
2022/05/12 09:47:18;;;;;;;26.65;13.00;;;;;;;38.27;35.66;97120.81;4901719;29;20087;-67
2022/05/12 09:50:20;;;;;;;29.02;11.25;;;;;;;38.02;36.65;97114.44;4890686;29;20732;-67
2022/05/12 09:53:08;;;;;;;27.73;11.95;;;;;;;38.31;36.11;97113.06;4903640;29;20048;-66
2022/05/12 09:56:07;;;;;;;32.35;13.50;;;;;;;38.12;33.79;97112.66;4901325;29;20429;-67
2022/05/12 09:59:06;;;;;;;28.30;12.52;;;;;;;37.85;37.14;97095.78;4900678;29;20060;-66
2022/05/12 10:02:04;;;;;;;31.05;12.25;;;;;;;37.57;38.01;97090.72;4900342;29;20059;-66
2022/05/12 10:08:34;;;;;;;53.13;15.27;;;;;;;38.17;30.46;97093.84;4913739;29;20044;-67
2022/05/12 10:11:24;;;;;;;30.48;11.73;;;;;;;37.90;34.71;97075.13;4914901;29;20147;-66
2022/05/12 10:14:07;;;;;;;;;;;;;;;37.78;36.31;97073.69;4915537;29;20059;-67
2022/05/12 10:17:06;;;;;;;27.05;11.68;;;;;;;37.86;32.34;97075.88;4912687;29;20022;-66
2022/05/12 10:19:58;;;;;;;27.58;11.73;;;;;;;37.78;34.30;97058.34;4915546;29;20056;-66
2022/05/12 10:23:08;;;;;;;27.08;11.90;;;;;;;37.59;36.49;97051.78;4912736;29;20519;-67
2022/05/12 10:26:14;;;;;;;20.30;11.02;;;;;;;37.28;37.44;97049.91;4917118;29;20058;-66
2022/05/12 10:29:19;;;;;;;24.67;12.15;;;;;;;37.21;38.14;97044.72;4915022;29;20047;-67
2022/05/12 10:32:28;;;;;;;32.53;12.02;;;;;;;37.25;35.71;97042.34;4915064;29;20634;-66
2022/05/12 10:35:30;;;;;;;26.92;12.27;;;;;;;37.80;32.95;97044.66;4915555;29;20062;-67
2022/05/12 10:38:57;;;;;;;28.00;11.15;;;;;;;37.61;37.00;97038.88;4901189;29;20563;-66
2022/05/12 10:42:21;;;;;;;31.60;11.05;;;;;;;37.61;34.67;97038.88;4887774;29;20562;-67
2022/05/12 10:45:49;;;;;;;27.75;11.70;;;;;;;37.32;35.91;97016.88;4902216;29;20139;-67
2022/05/12 10:48:42;;;;;;;31.55;11.13;;;;;;;37.10;38.23;97019.63;4902517;29;20056;-67
2022/05/12 10:51:44;;;;;;;35.45;10.77;;;;;;;36.97;36.39;97019.22;4909449;29;20574;-66
2022/05/12 10:55:08;;;;;;;34.97;11.93;;;;;;;36.93;36.72;97015.44;4913335;29;20067;-66
2022/05/12 10:58:06;;;;;;;;;;;;;;;36.77;37.82;97015.28;4913204;29;20052;-67
2022/05/12 11:01:00;;;;;;;29.63;9.82;;;;;;;36.79;34.40;97005.13;4913240;29;19934;-67
2022/05/12 11:03:57;;;;;;;26.27;10.68;;;;;;;36.69;38.55;97005.00;4913253;29;20059;-67
2022/05/12 11:06:51;;;;;;;30.65;10.52;;;;;;;37.26;34.79;97000.97;4911465;29;20115;-66
2022/05/12 11:09:33;;;;;;;28.08;10.48;;;;;;;37.86;34.35;97000.56;4912811;29;20048;-67
2022/05/12 11:12:29;;;;;;;35.08;11.55;;;;;;;37.51;34.18;96999.28;4912422;29;20063;-67
2022/05/12 11:15:18;;;;;;;27.38;9.85;;;;;;;37.33;34.96;96991.63;4912706;29;20082;-66
2022/05/12 11:18:23;;;;;;;27.25;9.68;;;;;;;37.34;35.82;96990.56;4904863;29;20048;-65
2022/05/12 11:21:15;;;;;;;34.10;10.95;;;;;;;37.22;36.04;96983.72;4898312;29;20107;-66
2022/05/12 11:24:04;;;;;;;19.13;8.50;;;;;;;37.10;35.94;96981.22;4902760;29;20051;-65
2022/05/12 11:27:05;;;;;;;25.25;8.43;;;;;;;36.85;37.69;96978.31;4902052;29;20093;-65
2022/05/12 11:30:24;;;;;;;32.30;10.15;;;;;;;36.89;36.45;96977.53;4907284;29;20060;-66
2022/05/12 11:33:12;;;;;;;27.17;8.90;;;;;;;36.86;34.74;96977.25;4912385;29;20048;-65
2022/05/12 11:36:02;;;;;;;23.35;8.82;;;;;;;36.95;35.02;96975.72;4909612;29;20087;-65
2022/05/12 11:39:01;;;;;;;30.52;8.80;;;;;;;36.94;32.61;96971.41;4904020;29;20059;-66
2022/05/12 11:41:43;;;;;;;31.90;8.20;;;;;;;36.93;35.84;96975.97;4898668;29;20148;-65
2022/05/12 11:44:38;;;;;;;24.58;8.02;;;;;;;37.01;31.54;96967.44;4904765;29;20143;-65
2022/05/12 11:47:57;;;;;;;23.17;8.02;;;;;;;37.03;29.54;96970.69;4894291;29;20052;-65
2022/05/12 11:50:49;;;;;;;30.10;7.80;;;;;;;37.10;30.66;96965.09;4898978;29;20100;-65
2022/05/12 11:54:05;;;;;;;19.48;7.50;;;;;;;37.14;30.50;96960.84;4912630;29;20128;-66
2022/05/12 11:56:58;;;;;;;35.13;8.73;;;;;;;37.28;29.73;96964.69;4910117;29;20079;-66
2022/05/12 11:59:40;;;;;;;31.05;7.72;;;;;;;37.23;27.78;96964.69;4894951;29;20051;-65
2022/05/12 12:02:36;;;;;;;24.65;7.88;;;;;;;37.16;28.92;96964.09;4903257;29;20135;-66
2022/05/12 12:05:47;;;;;;;23.63;8.07;;;;;;;37.06;29.89;96953.22;4903215;29;20056;-65
2022/05/12 12:08:39;;;;;;;26.58;7.47;;;;;;;36.99;29.39;96952.63;4900801;29;20548;-65
2022/05/12 12:11:25;;;;;;;20.27;7.22;;;;;;;36.87;31.37;96954.69;4898890;29;20059;-66
2022/05/12 12:14:13;;;;;;;29.52;8.60;;;;;;;36.67;37.02;96948.06;4897385;29;20076;-65
2022/05/12 12:17:19;;;;;;;28.90;8.27;;;;;;;36.54;34.50;96956.53;4899638;29;20436;-66
2022/05/12 12:20:09;;;;;;;24.10;8.48;;;;;;;36.36;35.85;96948.81;4909784;29;20131;-66
2022/05/12 12:22:59;;;;;;;28.15;8.48;;;;;;;36.28;34.36;96957.31;4900193;29;20071;-66
2022/05/12 12:25:55;;;;;;;23.17;8.80;;;;;;;36.25;33.63;96952.44;4902110;29;20115;-66
2022/05/12 12:29:17;;;;;;;26.10;8.13;;;;;;;36.15;35.27;96952.31;4880267;29;20051;-66
2022/05/12 12:32:31;;;;;;;28.20;7.95;;;;;;;36.01;33.98;96954.53;4907959;29;20112;-67
2022/05/12 12:35:33;;;;;;;28.25;8.55;;;;;;;35.97;37.87;96956.94;4902608;29;20064;-66
2022/05/12 12:38:48;;;;;;;26.13;9.02;;;;;;;35.94;38.57;96956.59;4899555;29;20045;-66
2022/05/12 12:41:37;;;;;;;30.98;8.52;;;;;;;35.88;40.46;96950.38;4904666;29;20060;-66
2022/05/12 12:44:23;;;;;;;26.48;9.82;;;;;;;35.82;39.96;96950.56;4910082;29;20059;-67
2022/05/12 12:47:26;;;;;;;32.35;9.02;;;;;;;35.76;38.31;96948.88;4909788;29;20052;-66
2022/05/12 12:50:36;;;;;;;28.50;8.75;;;;;;;35.65;41.13;96955.94;4890662;29;20148;-66
2022/05/12 12:56:35;;;;;;;27.65;10.13;;;;;;;35.24;49.89;96960.72;4899204;29;20056;-67
2022/05/12 12:59:28;;;;;;;26.27;8.32;;;;;;;35.11;47.50;96963.72;4899164;29;20107;-66
2022/05/12 13:02:28;;;;;;;33.42;9.00;;;;;;;34.92;45.35;96963.13;4906965;29;20056;-65
2022/05/12 13:05:24;;;;;;;36.25;8.77;;;;;;;34.87;44.36;96965.72;4906590;29;20044;-66
2022/05/12 13:08:20;;;;;;;37.63;9.23;;;;;;;34.82;46.76;96970.97;4911178;29;20441;-67
2022/05/12 13:11:11;;;;;;;33.22;9.60;;;;;;;34.74;43.81;96970.56;4898265;29;20048;-66
2022/05/12 13:13:55;;;;;;;30.98;9.32;;;;;;;34.68;43.12;96980.34;4907644;29;20080;-66
2022/05/12 13:16:54;;;;;;;31.27;9.40;;;;;;;34.61;42.74;96987.72;4903804;29;20071;-66
2022/05/12 13:19:40;;;;;;;26.80;9.00;;;;;;;34.56;44.10;96982.28;4894149;29;20047;-66
2022/05/12 13:22:56;;;;;;;31.45;10.32;;;;;;;34.49;45.13;96984.25;4895593;29;20080;-67
2022/05/12 13:25:52;;;;;;;25.83;8.85;;;;;;;34.34;51.26;96979.44;4898570;29;20045;-66
2022/05/12 13:28:30;;;;;;;44.03;11.60;;;;;;;34.22;46.15;96981.31;4895805;29;20545;-66
2022/05/12 13:31:35;;;;;;;32.25;9.85;;;;;;;34.15;44.88;96986.00;4899980;29;20139;-65